createdAt,value
2022-10-19T00:00:19.792Z,981.29
2022-10-19T00:01:19.786Z,981.29
2022-10-19T00:02:19.838Z,981.29
2022-10-19T00:03:22.436Z,981.32
2022-10-19T00:04:19.756Z,981.29
2022-10-19T00:05:19.747Z,981.30
2022-10-19T00:06:19.860Z,981.30
2022-10-19T00:07:19.729Z,981.29
2022-10-19T00:08:19.715Z,981.30
2022-10-19T00:09:19.708Z,981.27
2022-10-19T00:10:19.697Z,981.22
2022-10-19T00:11:19.689Z,981.25
2022-10-19T00:12:19.677Z,981.21
2022-10-19T00:13:19.671Z,981.23
2022-10-19T00:14:19.656Z,981.18
2022-10-19T00:15:19.651Z,981.15
2022-10-19T00:16:19.639Z,981.16
2022-10-19T00:17:19.628Z,981.14
2022-10-19T00:18:19.821Z,981.13
2022-10-19T00:19:19.610Z,981.09
2022-10-19T00:20:19.598Z,981.14
2022-10-19T00:21:19.591Z,981.09
2022-10-19T00:22:19.599Z,981.10
2022-10-19T00:23:19.572Z,981.10
2022-10-19T00:24:19.559Z,981.06
2022-10-19T00:25:19.552Z,981.09
2022-10-19T00:26:19.540Z,981.06
2022-10-19T00:27:19.534Z,981.07
2022-10-19T00:28:19.520Z,981.08
2022-10-19T00:29:19.512Z,981.02
2022-10-19T00:30:19.500Z,981.04
2022-10-19T00:31:19.493Z,981.04
2022-10-19T00:32:19.500Z,981.05
2022-10-19T00:33:19.473Z,981.05
2022-10-19T00:34:19.462Z,981.05
2022-10-19T00:35:19.454Z,981.03
2022-10-19T00:36:19.440Z,981.04
2022-10-19T00:37:19.433Z,981.02
2022-10-19T00:38:19.446Z,981.03
2022-10-19T00:39:19.414Z,981.02
2022-10-19T00:40:19.403Z,981.00
2022-10-19T00:41:19.400Z,981.00
2022-10-19T00:42:19.383Z,980.97
2022-10-19T00:43:19.376Z,980.99
2022-10-19T00:45:19.352Z,980.98
2022-10-19T00:46:19.344Z,980.98
2022-10-19T00:47:19.345Z,980.98
2022-10-19T00:48:19.325Z,980.99
2022-10-19T00:49:19.313Z,981.00
2022-10-19T00:50:19.304Z,980.95
2022-10-19T00:51:19.295Z,981.00
2022-10-19T00:52:19.284Z,981.01
2022-10-19T00:53:19.273Z,981.03
2022-10-19T00:54:19.286Z,981.00
2022-10-19T00:55:19.255Z,981.00
2022-10-19T00:56:19.247Z,981.05
2022-10-19T00:57:19.338Z,981.05
2022-10-19T00:58:19.230Z,981.01
2022-10-19T00:59:19.215Z,981.05
2022-10-19T01:00:19.213Z,981.03
2022-10-19T01:01:19.335Z,981.00
2022-10-19T01:02:19.191Z,981.02
2022-10-19T01:03:19.175Z,980.98
2022-10-19T01:04:19.167Z,980.99
2022-10-19T01:05:19.155Z,980.99
2022-10-19T01:06:19.162Z,980.96
2022-10-19T01:07:19.137Z,980.94
2022-10-19T01:08:19.128Z,980.93
2022-10-19T01:09:19.118Z,980.96
2022-10-19T01:10:19.126Z,980.94
2022-10-19T01:11:19.100Z,980.92
2022-10-19T01:12:19.089Z,980.95
2022-10-19T01:13:19.076Z,980.94
2022-10-19T01:14:19.069Z,980.87
2022-10-19T01:15:19.056Z,980.84
2022-10-19T01:16:19.050Z,980.80
2022-10-19T01:17:19.037Z,980.81
2022-10-19T01:18:19.029Z,980.80
2022-10-19T01:19:19.021Z,980.79
2022-10-19T01:20:19.006Z,980.80
2022-10-19T01:21:18.995Z,980.80
2022-10-19T01:22:18.989Z,980.80
2022-10-19T01:23:18.976Z,980.83
2022-10-19T01:24:18.967Z,980.83
2022-10-19T01:25:18.956Z,980.82
2022-10-19T01:26:18.967Z,980.85
2022-10-19T01:27:18.936Z,980.83
2022-10-19T01:28:18.929Z,980.83
2022-10-19T01:29:18.915Z,980.83
2022-10-19T01:30:18.910Z,980.79
2022-10-19T01:31:19.097Z,980.79
2022-10-19T01:32:18.888Z,980.78
2022-10-19T01:33:18.879Z,980.83
2022-10-19T01:34:18.868Z,980.77
2022-10-19T01:35:18.856Z,980.77
2022-10-19T01:36:18.847Z,980.73
2022-10-19T01:37:18.835Z,980.74
2022-10-19T01:38:18.827Z,980.71
2022-10-19T01:39:18.816Z,980.73
2022-10-19T01:40:18.808Z,980.72
2022-10-19T01:41:18.796Z,980.70
2022-10-19T01:42:18.806Z,980.71
2022-10-19T01:43:18.778Z,980.73
2022-10-19T01:44:18.766Z,980.75
2022-10-19T01:45:18.755Z,980.74
2022-10-19T01:46:18.848Z,980.76
2022-10-19T01:47:18.741Z,980.77
2022-10-19T01:48:18.725Z,980.76
2022-10-19T01:49:18.718Z,980.76
2022-10-19T01:50:18.706Z,980.78
2022-10-19T01:51:18.698Z,980.80
2022-10-19T01:52:18.685Z,980.78
2022-10-19T01:53:18.680Z,980.77
2022-10-19T01:54:18.875Z,980.77
2022-10-19T01:55:18.657Z,980.78
2022-10-19T01:56:18.645Z,980.80
2022-10-19T01:57:18.637Z,980.78
2022-10-19T01:58:18.643Z,980.79
2022-10-19T01:59:18.617Z,980.75
2022-10-19T02:00:18.602Z,980.73
2022-10-19T02:01:18.601Z,980.72
2022-10-19T02:02:18.584Z,980.70
2022-10-19T02:03:18.579Z,980.70
2022-10-19T02:04:18.563Z,980.72
2022-10-19T02:05:18.655Z,980.74
2022-10-19T02:06:18.555Z,980.76
2022-10-19T02:07:18.550Z,980.74
2022-10-19T02:08:18.524Z,980.78
2022-10-19T02:09:18.540Z,980.75
2022-10-19T02:10:18.515Z,980.75
2022-10-19T02:11:18.497Z,980.73
2022-10-19T02:12:18.482Z,980.77
2022-10-19T02:13:18.477Z,980.74
2022-10-19T02:14:18.482Z,980.72
2022-10-19T02:15:18.454Z,980.72
2022-10-19T02:16:18.442Z,980.70
2022-10-19T02:17:18.434Z,980.70
2022-10-19T02:18:18.421Z,980.66
2022-10-19T02:19:18.496Z,980.67
2022-10-19T02:20:18.401Z,980.66
2022-10-19T02:21:18.407Z,980.66
2022-10-19T02:22:18.381Z,980.64
2022-10-19T02:23:18.375Z,980.71
2022-10-19T02:24:18.358Z,980.69
2022-10-19T02:25:18.554Z,980.71
2022-10-19T02:26:18.340Z,980.69
2022-10-19T02:27:18.332Z,980.71
2022-10-19T02:28:18.374Z,980.69
2022-10-19T02:29:18.315Z,980.67
2022-10-19T02:30:18.318Z,980.60
2022-10-19T02:31:18.294Z,980.65
2022-10-19T02:32:18.278Z,980.66
2022-10-19T02:33:18.270Z,980.62
2022-10-19T02:34:18.259Z,980.66
2022-10-19T02:35:18.251Z,980.64
2022-10-19T02:36:18.238Z,980.66
2022-10-19T02:37:20.971Z,980.65
2022-10-19T02:38:18.218Z,980.63
2022-10-19T02:39:18.208Z,980.63
2022-10-19T02:40:18.195Z,980.60
2022-10-19T02:41:18.189Z,980.61
2022-10-19T02:42:18.177Z,980.63
2022-10-19T02:43:18.168Z,980.58
2022-10-19T02:44:18.156Z,980.56
2022-10-19T02:45:18.148Z,980.57
2022-10-19T02:46:18.156Z,980.59
2022-10-19T02:47:18.127Z,980.57
2022-10-19T02:48:18.117Z,980.59
2022-10-19T02:49:18.122Z,980.56
2022-10-19T02:50:18.094Z,980.53
2022-10-19T02:51:18.087Z,980.53
2022-10-19T02:52:18.089Z,980.51
2022-10-19T02:53:18.067Z,980.49
2022-10-19T02:54:18.055Z,980.50
2022-10-19T02:55:18.046Z,980.50
2022-10-19T02:56:18.033Z,980.51
2022-10-19T02:57:18.024Z,980.48
2022-10-19T02:58:18.012Z,980.48
2022-10-19T02:59:18.002Z,980.43
2022-10-19T03:00:17.991Z,980.43
2022-10-19T03:01:18.031Z,980.42
2022-10-19T03:02:17.989Z,980.38
2022-10-19T03:03:17.963Z,980.32
2022-10-19T03:04:17.951Z,980.33
2022-10-19T03:05:17.942Z,980.28
2022-10-19T03:06:17.932Z,980.27
2022-10-19T03:07:17.940Z,980.24
2022-10-19T03:08:17.910Z,980.25
2022-10-19T03:09:17.900Z,980.20
2022-10-19T03:10:17.889Z,980.20
2022-10-19T03:11:17.879Z,980.19
2022-10-19T03:12:17.871Z,980.20
2022-10-19T03:13:17.860Z,980.22
2022-10-19T03:14:17.847Z,980.19
2022-10-19T03:15:17.841Z,980.18
2022-10-19T03:16:17.827Z,980.17
2022-10-19T03:17:17.820Z,980.21
2022-10-19T03:18:17.825Z,980.15
2022-10-19T03:19:17.798Z,980.15
2022-10-19T03:20:17.784Z,980.16
2022-10-19T03:21:17.778Z,980.11
2022-10-19T03:22:17.766Z,980.14
2022-10-19T03:23:17.760Z,980.11
2022-10-19T03:24:17.744Z,980.15
2022-10-19T03:25:17.753Z,980.14
2022-10-19T03:26:17.744Z,980.13
2022-10-19T03:27:17.716Z,980.14
2022-10-19T03:28:17.704Z,980.14
2022-10-19T03:29:17.899Z,980.17
2022-10-19T03:30:17.682Z,980.14
2022-10-19T03:31:17.675Z,980.12
2022-10-19T03:32:17.662Z,980.14
2022-10-19T03:33:17.684Z,980.13
2022-10-19T03:34:17.660Z,980.12
2022-10-19T03:35:17.634Z,980.14
2022-10-19T03:36:17.621Z,980.16
2022-10-19T03:37:17.615Z,980.15
2022-10-19T03:38:17.601Z,980.15
2022-10-19T03:39:17.594Z,980.13
2022-10-19T03:40:17.580Z,980.18
2022-10-19T03:41:17.571Z,980.18
2022-10-19T03:42:17.559Z,980.21
2022-10-19T03:43:17.552Z,980.20
2022-10-19T03:44:17.541Z,980.23
2022-10-19T03:45:17.533Z,980.20
2022-10-19T03:46:17.519Z,980.22
2022-10-19T03:47:17.510Z,980.20
2022-10-19T03:48:17.498Z,980.24
2022-10-19T03:49:17.489Z,980.24
2022-10-19T03:50:17.501Z,980.31
2022-10-19T03:51:17.469Z,980.28
2022-10-19T03:52:17.657Z,980.33
2022-10-19T03:53:17.454Z,980.31
2022-10-19T03:55:17.428Z,980.31
2022-10-19T03:56:17.418Z,980.30
2022-10-19T03:57:17.406Z,980.35
2022-10-19T03:58:17.395Z,980.34
2022-10-19T03:59:17.384Z,980.35
2022-10-19T04:00:17.377Z,980.35
2022-10-19T04:01:17.467Z,980.30
2022-10-19T04:02:17.355Z,980.33
2022-10-19T04:03:17.343Z,980.31
2022-10-19T04:04:17.334Z,980.32
2022-10-19T04:05:17.321Z,980.30
2022-10-19T04:06:21.178Z,980.28
2022-10-19T04:07:17.301Z,980.26
2022-10-19T04:08:17.297Z,980.30
2022-10-19T04:09:17.290Z,980.34
2022-10-19T04:10:17.271Z,980.32
2022-10-19T04:11:17.260Z,980.32
2022-10-19T04:12:17.253Z,980.30
2022-10-19T04:13:17.244Z,980.33
2022-10-19T04:14:26.763Z,980.33
2022-10-19T04:15:17.218Z,980.33
2022-10-19T04:16:17.208Z,980.33
2022-10-19T04:17:17.197Z,980.30
2022-10-19T04:18:17.188Z,980.28
2022-10-19T04:19:17.175Z,980.27
2022-10-19T04:20:17.168Z,980.28
2022-10-19T04:21:17.155Z,980.27
2022-10-19T04:22:17.164Z,980.23
2022-10-19T04:24:17.128Z,980.24
2022-10-19T04:25:17.112Z,980.16
2022-10-19T04:26:17.104Z,980.17
2022-10-19T04:27:17.099Z,980.14
2022-10-19T04:28:17.081Z,980.11
2022-10-19T04:29:17.068Z,980.12
2022-10-19T04:30:17.068Z,980.08
2022-10-19T04:31:17.049Z,980.05
2022-10-19T04:32:17.041Z,980.05
2022-10-19T04:33:17.028Z,980.02
2022-10-19T04:34:17.020Z,980.05
2022-10-19T04:35:17.211Z,980.03
2022-10-19T04:36:16.999Z,980.02
2022-10-19T04:37:16.987Z,980.00
2022-10-19T04:38:16.996Z,980.00
2022-10-19T04:39:16.966Z,980.05
2022-10-19T04:40:16.959Z,980.04
2022-10-19T04:41:16.944Z,980.08
2022-10-19T04:42:16.936Z,980.11
2022-10-19T04:43:16.925Z,980.06
2022-10-19T04:44:16.998Z,980.06
2022-10-19T04:45:16.903Z,980.06
2022-10-19T04:46:16.895Z,980.02
2022-10-19T04:47:16.887Z,979.99
2022-10-19T04:48:16.874Z,980.03
2022-10-19T04:49:19.497Z,980.02
2022-10-19T04:50:16.855Z,980.04
2022-10-19T04:52:16.829Z,980.07
2022-10-19T04:53:16.864Z,980.10
2022-10-19T04:54:16.829Z,980.07
2022-10-19T04:55:16.801Z,980.08
2022-10-19T04:56:16.788Z,980.11
2022-10-19T04:57:16.848Z,980.11
2022-10-19T04:58:16.766Z,980.12
2022-10-19T04:59:16.757Z,980.13
2022-10-19T05:00:16.745Z,980.12
2022-10-19T05:01:16.822Z,980.13
2022-10-19T05:02:16.725Z,980.15
2022-10-19T05:03:16.717Z,980.14
2022-10-19T05:04:16.703Z,980.13
2022-10-19T05:05:16.700Z,980.13
2022-10-19T05:06:16.686Z,980.14
2022-10-19T05:07:16.766Z,980.12
2022-10-19T05:08:16.674Z,980.11
2022-10-19T05:09:16.656Z,980.16
2022-10-19T05:10:16.666Z,980.19
2022-10-19T05:11:16.633Z,980.15
2022-10-19T05:12:16.619Z,980.17
2022-10-19T05:13:16.612Z,980.13
2022-10-19T05:14:16.891Z,980.10
2022-10-19T05:15:16.592Z,980.10
2022-10-19T05:16:16.578Z,980.09
2022-10-19T05:17:16.647Z,980.05
2022-10-19T05:18:16.564Z,980.01
2022-10-19T05:19:16.549Z,979.97
2022-10-19T05:20:16.551Z,979.98
2022-10-19T05:21:16.531Z,979.98
2022-10-19T05:23:16.507Z,979.98
2022-10-19T05:24:16.498Z,979.92
2022-10-19T05:25:16.486Z,979.93
2022-10-19T05:26:16.497Z,979.93
2022-10-19T05:27:16.467Z,979.93
2022-10-19T05:28:16.457Z,979.90
2022-10-19T05:29:16.444Z,979.92
2022-10-19T05:30:16.437Z,979.90
2022-10-19T05:31:16.425Z,979.88
2022-10-19T05:32:16.416Z,979.91
2022-10-19T05:33:16.406Z,979.89
2022-10-19T05:34:16.396Z,979.87
2022-10-19T05:35:18.725Z,979.90
2022-10-19T05:36:16.373Z,979.92
2022-10-19T05:37:16.566Z,979.85
2022-10-19T05:38:16.354Z,979.89
2022-10-19T05:39:16.343Z,979.90
2022-10-19T05:40:16.334Z,979.86
2022-10-19T05:41:16.322Z,979.86
2022-10-19T05:42:16.332Z,979.87
2022-10-19T05:43:16.302Z,979.88
2022-10-19T05:44:16.293Z,979.89
2022-10-19T05:45:16.282Z,979.85
2022-10-19T05:46:16.273Z,979.87
2022-10-19T05:47:16.265Z,979.89
2022-10-19T05:48:16.253Z,979.92
2022-10-19T05:49:16.241Z,979.88
2022-10-19T05:50:16.235Z,979.92
2022-10-19T05:51:16.221Z,979.93
2022-10-19T05:52:16.214Z,979.95
2022-10-19T05:53:16.200Z,979.93
2022-10-19T05:54:16.193Z,979.96
2022-10-19T05:55:16.181Z,979.96
2022-10-19T05:56:16.170Z,979.99
2022-10-19T05:57:16.159Z,979.97
2022-10-19T05:58:16.172Z,979.98
2022-10-19T05:59:16.141Z,979.94
2022-10-19T06:00:16.130Z,980.00
2022-10-19T06:01:16.118Z,979.90
2022-10-19T06:02:16.111Z,979.90
2022-10-19T06:03:16.100Z,979.85
2022-10-19T06:05:16.078Z,979.86
2022-10-19T06:07:16.061Z,979.92
2022-10-19T06:08:16.150Z,979.92
2022-10-19T06:09:16.037Z,979.95
2022-10-19T06:10:16.029Z,979.91
2022-10-19T06:11:16.020Z,979.90
2022-10-19T06:12:16.455Z,979.95
2022-10-19T06:13:15.998Z,979.90
2022-10-19T06:14:16.008Z,979.89
2022-10-19T06:15:15.976Z,979.94
2022-10-19T06:16:15.968Z,979.94
2022-10-19T06:17:15.956Z,979.96
2022-10-19T06:18:15.948Z,979.95
2022-10-19T06:19:16.036Z,979.93
2022-10-19T06:20:15.927Z,979.95
2022-10-19T06:21:15.915Z,979.99
2022-10-19T06:22:15.907Z,979.95
2022-10-19T06:23:15.897Z,979.94
2022-10-19T06:24:15.886Z,980.00
2022-10-19T06:25:18.105Z,980.01
2022-10-19T06:26:15.875Z,980.01
2022-10-19T06:27:15.881Z,980.07
2022-10-19T06:28:15.845Z,980.01
2022-10-19T06:29:15.833Z,980.02
2022-10-19T06:30:15.881Z,980.00
2022-10-19T06:31:15.815Z,980.01
2022-10-19T06:32:15.805Z,980.02
2022-10-19T06:33:15.794Z,979.97
2022-10-19T06:34:15.875Z,980.06
2022-10-19T06:35:15.775Z,980.06
2022-10-19T06:36:15.765Z,980.01
2022-10-19T06:37:15.755Z,980.01
2022-10-19T06:38:15.745Z,980.10
2022-10-19T06:39:15.733Z,980.04
2022-10-19T06:40:15.789Z,980.03
2022-10-19T06:41:15.713Z,980.09
2022-10-19T06:42:15.705Z,980.04
2022-10-19T06:43:15.699Z,980.04
2022-10-19T06:44:15.684Z,980.03
2022-10-19T06:45:15.672Z,980.07
2022-10-19T06:46:15.708Z,980.02
2022-10-19T06:47:15.654Z,980.01
2022-10-19T06:48:15.644Z,980.06
2022-10-19T06:49:15.631Z,980.05
2022-10-19T06:50:15.629Z,980.18
2022-10-19T06:51:15.617Z,980.12
2022-10-19T06:52:15.602Z,980.18
2022-10-19T06:53:15.591Z,980.14
2022-10-19T06:54:15.583Z,980.14
2022-10-19T06:55:15.572Z,980.17
2022-10-19T06:56:15.563Z,980.13
2022-10-19T06:57:15.551Z,980.17
2022-10-19T06:58:15.546Z,980.16
2022-10-19T06:59:15.532Z,980.14
2022-10-19T07:00:15.522Z,980.22
2022-10-19T07:01:15.635Z,980.16
2022-10-19T07:02:15.522Z,980.18
2022-10-19T07:03:15.512Z,980.22
2022-10-19T07:04:15.482Z,980.20
2022-10-19T07:05:15.471Z,980.18
2022-10-19T07:06:15.464Z,980.22
2022-10-19T07:07:15.451Z,980.24
2022-10-19T07:08:15.493Z,980.22
2022-10-19T07:09:15.430Z,980.25
2022-10-19T07:10:15.423Z,980.22
2022-10-19T07:11:15.412Z,980.35
2022-10-19T07:12:15.402Z,980.32
2022-10-19T07:13:15.393Z,980.28
2022-10-19T07:14:15.384Z,980.32
2022-10-19T07:15:15.371Z,980.31
2022-10-19T07:16:19.504Z,980.38
2022-10-19T07:17:15.350Z,980.39
2022-10-19T07:18:15.363Z,980.42
2022-10-19T07:19:15.332Z,980.34
2022-10-19T07:20:15.323Z,980.37
2022-10-19T07:21:15.311Z,980.31
2022-10-19T07:22:20.380Z,980.35
2022-10-19T07:23:15.291Z,980.27
2022-10-19T07:24:15.284Z,980.34
2022-10-19T07:25:15.272Z,980.28
2022-10-19T07:26:15.265Z,980.36
2022-10-19T07:27:15.251Z,980.30
2022-10-19T07:28:15.242Z,980.30
2022-10-19T07:29:15.232Z,980.31
2022-10-19T07:30:15.224Z,980.28
2022-10-19T07:31:15.215Z,980.35
2022-10-19T07:32:15.202Z,980.32
2022-10-19T07:33:15.193Z,980.27
2022-10-19T07:34:15.407Z,980.39
2022-10-19T07:35:15.379Z,980.30
2022-10-19T07:36:15.164Z,980.27
2022-10-19T07:37:15.153Z,980.26
2022-10-19T07:38:15.145Z,980.25
2022-10-19T07:39:15.132Z,980.23
2022-10-19T07:40:15.124Z,980.24
2022-10-19T07:41:15.130Z,980.21
2022-10-19T07:42:15.128Z,980.16
2022-10-19T07:43:15.093Z,980.23
2022-10-19T07:44:15.884Z,980.24
2022-10-19T07:45:15.086Z,980.29
2022-10-19T07:46:15.065Z,980.29
2022-10-19T07:47:15.053Z,980.31
2022-10-19T07:48:15.044Z,980.25
2022-10-19T07:49:15.033Z,980.27
2022-10-19T07:50:15.043Z,980.29
2022-10-19T07:51:15.037Z,980.27
2022-10-19T07:52:15.004Z,980.23
2022-10-19T07:53:14.993Z,980.19
2022-10-19T07:54:14.987Z,980.31
2022-10-19T07:55:14.972Z,980.27
2022-10-19T07:56:14.965Z,980.34
2022-10-19T07:57:14.958Z,980.28
2022-10-19T07:58:14.946Z,980.35
2022-10-19T07:59:14.935Z,980.23
2022-10-19T08:00:14.926Z,980.29
2022-10-19T08:01:14.914Z,980.19
2022-10-19T08:02:14.981Z,980.22
2022-10-19T08:05:15.331Z,980.29
2022-10-19T08:06:14.883Z,980.20
2022-10-19T08:07:14.855Z,980.28
2022-10-19T08:08:14.847Z,980.21
2022-10-19T08:09:33.371Z,980.43
2022-10-19T08:10:14.827Z,980.36
2022-10-19T08:11:14.817Z,980.30
2022-10-19T08:12:15.706Z,980.28
2022-10-19T08:13:14.996Z,980.37
2022-10-19T08:14:14.988Z,980.28
2022-10-19T08:15:14.784Z,980.18
2022-10-19T08:16:14.768Z,980.23
2022-10-19T08:17:14.758Z,980.19
2022-10-19T08:18:14.750Z,980.23
2022-10-19T08:19:14.735Z,980.17
2022-10-19T08:20:14.727Z,980.21
2022-10-19T08:21:14.715Z,980.16
2022-10-19T08:22:14.729Z,980.20
2022-10-19T08:23:14.697Z,980.25
2022-10-19T08:24:14.688Z,980.25
2022-10-19T08:25:14.676Z,980.20
2022-10-19T08:26:14.669Z,980.23
2022-10-19T08:27:14.657Z,980.26
2022-10-19T08:28:14.647Z,980.23
2022-10-19T08:29:14.642Z,980.26
2022-10-19T08:30:14.630Z,980.22
2022-10-19T08:31:14.617Z,980.21
2022-10-19T08:32:14.608Z,980.27
2022-10-19T08:33:14.598Z,980.21
2022-10-19T08:34:14.592Z,980.14
2022-10-19T08:35:14.597Z,980.12
2022-10-19T08:36:14.581Z,980.15
2022-10-19T08:37:26.041Z,980.21
2022-10-19T08:38:14.570Z,980.25
2022-10-19T08:39:14.538Z,980.24
2022-10-19T08:40:14.531Z,980.20
2022-10-19T08:41:14.519Z,980.27
2022-10-19T08:42:14.514Z,980.16
2022-10-19T08:43:14.503Z,980.29
2022-10-19T08:44:14.491Z,980.16
2022-10-19T08:45:14.481Z,980.15
2022-10-19T08:46:14.478Z,980.22
2022-10-19T08:47:15.839Z,980.23
2022-10-19T08:48:14.451Z,980.17
2022-10-19T08:49:14.440Z,980.21
2022-10-19T08:50:14.447Z,980.15
2022-10-19T08:51:14.422Z,980.15
2022-10-19T08:52:14.414Z,980.08
2022-10-19T08:53:14.402Z,980.04
2022-10-19T08:54:14.417Z,980.10
2022-10-19T08:55:18.030Z,980.18
2022-10-19T08:56:22.148Z,980.12
2022-10-19T08:57:14.362Z,980.10
2022-10-19T08:58:14.355Z,980.03
2022-10-19T08:59:14.346Z,980.07
2022-10-19T09:00:14.339Z,980.02
2022-10-19T09:01:14.323Z,980.05
2022-10-19T09:02:14.315Z,980.04
2022-10-19T09:03:15.630Z,980.03
2022-10-19T09:04:14.294Z,980.10
2022-10-19T09:05:14.287Z,980.06
2022-10-19T09:06:14.277Z,979.99
2022-10-19T09:07:14.265Z,980.10
2022-10-19T09:08:17.780Z,980.04
2022-10-19T09:09:14.246Z,980.04
2022-10-19T09:10:14.284Z,979.99
2022-10-19T09:11:14.227Z,980.07
2022-10-19T09:12:14.218Z,980.03
2022-10-19T09:13:14.206Z,979.94
2022-10-19T09:14:14.198Z,980.03
2022-10-19T09:15:14.288Z,980.00
2022-10-19T09:16:14.179Z,980.04
2022-10-19T09:17:14.170Z,980.02
2022-10-19T09:18:14.160Z,979.95
2022-10-19T09:19:14.150Z,980.01
2022-10-19T09:20:14.142Z,980.01
2022-10-19T09:21:14.131Z,979.96
2022-10-19T09:22:14.123Z,979.98
2022-10-19T09:23:14.111Z,979.92
2022-10-19T09:24:14.103Z,980.04
2022-10-19T09:25:14.091Z,979.88
2022-10-19T09:26:14.111Z,979.93
2022-10-19T09:27:14.073Z,980.00
2022-10-19T09:28:14.066Z,979.99
2022-10-19T09:29:14.054Z,980.01
2022-10-19T09:30:14.046Z,979.98
2022-10-19T09:31:14.035Z,979.89
2022-10-19T09:32:14.027Z,979.87
2022-10-19T09:33:15.433Z,979.86
2022-10-19T09:34:14.008Z,979.86
2022-10-19T09:35:13.997Z,979.85
2022-10-19T09:36:22.443Z,979.76
2022-10-19T09:37:21.156Z,979.82
2022-10-19T09:38:13.971Z,979.80
2022-10-19T09:39:13.959Z,979.81
2022-10-19T09:40:13.950Z,979.76
2022-10-19T09:41:13.942Z,979.87
2022-10-19T09:42:13.949Z,979.75
2022-10-19T09:43:13.920Z,979.77
2022-10-19T09:44:13.912Z,979.73
2022-10-19T09:45:13.900Z,979.83
2022-10-19T09:46:19.822Z,979.75
2022-10-19T09:47:14.037Z,979.77
2022-10-19T09:48:13.890Z,979.80
2022-10-19T09:49:13.861Z,979.72
2022-10-19T09:50:13.854Z,979.79
2022-10-19T09:51:13.843Z,979.79
2022-10-19T09:52:13.835Z,979.77
2022-10-19T09:53:13.824Z,979.78
2022-10-19T09:55:13.808Z,979.73
2022-10-19T09:56:13.795Z,979.83
2022-10-19T09:57:13.788Z,979.76
2022-10-19T09:58:13.799Z,979.75
2022-10-19T09:59:13.770Z,979.75
2022-10-19T10:00:13.757Z,979.79
2022-10-19T10:01:13.752Z,979.78
2022-10-19T10:02:13.740Z,979.77
2022-10-19T10:03:14.079Z,979.77
2022-10-19T10:04:13.720Z,979.76
2022-10-19T10:05:13.735Z,979.69
2022-10-19T10:06:13.700Z,979.67
2022-10-19T10:07:13.695Z,979.73
2022-10-19T10:08:13.683Z,979.76
2022-10-19T10:09:13.676Z,979.73
2022-10-19T10:10:13.664Z,979.74
2022-10-19T10:11:13.656Z,979.71
2022-10-19T10:12:13.645Z,979.70
2022-10-19T10:13:13.639Z,979.72
2022-10-19T10:14:13.648Z,979.70
2022-10-19T10:15:13.620Z,979.69
2022-10-19T10:16:13.607Z,979.63
2022-10-19T10:17:13.600Z,979.68
2022-10-19T10:18:13.589Z,979.64
2022-10-19T10:19:13.587Z,979.69
2022-10-19T10:20:13.572Z,979.63
2022-10-19T10:21:13.564Z,979.68
2022-10-19T10:22:13.552Z,979.65
2022-10-19T10:23:13.545Z,979.61
2022-10-19T10:24:13.534Z,979.62
2022-10-19T10:25:13.537Z,979.60
2022-10-19T10:26:13.518Z,979.59
2022-10-19T10:27:13.506Z,979.57
2022-10-19T10:28:13.496Z,979.60
2022-10-19T10:29:13.487Z,979.59
2022-10-19T10:30:13.500Z,979.63
2022-10-19T10:31:13.469Z,979.70
2022-10-19T10:32:13.466Z,979.70
2022-10-19T10:33:26.977Z,979.60
2022-10-19T10:34:23.054Z,979.63
2022-10-19T10:35:13.433Z,979.62
2022-10-19T10:36:13.423Z,979.57
2022-10-19T10:37:13.420Z,979.53
2022-10-19T10:38:13.408Z,979.67
2022-10-19T10:39:13.396Z,979.51
2022-10-19T10:40:13.388Z,979.51
2022-10-19T10:41:13.377Z,979.53
2022-10-19T10:42:13.371Z,979.59
2022-10-19T10:43:13.360Z,979.46
2022-10-19T10:44:13.353Z,979.47
2022-10-19T10:45:13.342Z,979.52
2022-10-19T10:46:13.354Z,979.52
2022-10-19T10:48:13.315Z,979.42
2022-10-19T10:49:13.307Z,979.45
2022-10-19T10:50:13.297Z,979.53
2022-10-19T10:51:13.290Z,979.53
2022-10-19T10:52:13.279Z,979.44
2022-10-19T10:53:13.271Z,979.50
2022-10-19T10:54:13.273Z,979.45
2022-10-19T10:55:13.255Z,979.49
2022-10-19T10:56:13.243Z,979.39
2022-10-19T10:57:13.413Z,979.40
2022-10-19T10:58:13.226Z,979.42
2022-10-19T10:59:13.219Z,979.40
2022-10-19T11:00:13.207Z,979.44
2022-10-19T11:01:13.308Z,979.44
2022-10-19T11:02:13.390Z,979.42
2022-10-19T11:03:13.185Z,979.49
2022-10-19T11:04:13.175Z,979.45
2022-10-19T11:05:13.165Z,979.45
2022-10-19T11:06:13.227Z,979.49
2022-10-19T11:07:13.159Z,979.48
2022-10-19T11:09:13.128Z,979.31
2022-10-19T11:10:13.121Z,979.32
2022-10-19T11:12:13.105Z,979.32
2022-10-19T11:13:13.098Z,979.28
2022-10-19T11:14:13.086Z,979.26
2022-10-19T11:15:13.086Z,979.35
2022-10-19T11:16:13.269Z,979.31
2022-10-19T11:17:13.061Z,979.26
2022-10-19T11:18:13.073Z,979.22
2022-10-19T11:19:13.044Z,979.39
2022-10-19T11:20:13.035Z,979.36
2022-10-19T11:21:13.027Z,979.21
2022-10-19T11:22:13.022Z,979.33
2022-10-19T11:23:13.011Z,979.27
2022-10-19T11:24:12.999Z,979.27
2022-10-19T11:25:12.994Z,979.27
2022-10-19T11:26:12.982Z,979.25
2022-10-19T11:27:12.975Z,979.27
2022-10-19T11:28:13.065Z,979.22
2022-10-19T11:29:13.161Z,979.16
2022-10-19T11:30:12.951Z,979.10
2022-10-19T11:31:12.943Z,979.16
2022-10-19T11:32:12.933Z,979.18
2022-10-19T11:33:12.926Z,979.07
2022-10-19T11:34:15.915Z,979.01
2022-10-19T11:35:12.907Z,979.01
2022-10-19T11:36:12.895Z,979.09
2022-10-19T11:37:12.889Z,979.12
2022-10-19T11:38:20.032Z,978.99
2022-10-19T11:39:12.873Z,979.02
2022-10-19T11:40:12.944Z,978.97
2022-10-19T11:41:20.044Z,978.92
2022-10-19T11:42:12.847Z,978.97
2022-10-19T11:43:12.838Z,978.91
2022-10-19T11:44:12.830Z,978.97
2022-10-19T11:45:12.821Z,978.89
2022-10-19T11:46:12.811Z,978.91
2022-10-19T11:47:12.804Z,978.84
2022-10-19T11:48:12.794Z,978.88
2022-10-19T11:49:12.788Z,978.85
2022-10-19T11:50:12.807Z,978.85
2022-10-19T11:51:21.711Z,978.79
2022-10-19T11:52:12.760Z,978.86
2022-10-19T11:53:12.759Z,978.77
2022-10-19T11:54:14.859Z,978.81
2022-10-19T11:55:12.738Z,978.84
2022-10-19T11:56:12.726Z,978.85
2022-10-19T11:57:12.797Z,978.83
2022-10-19T11:58:12.728Z,978.76
2022-10-19T12:00:15.054Z,978.71
2022-10-19T12:01:12.689Z,978.67
2022-10-19T12:02:12.716Z,978.64
2022-10-19T12:03:12.671Z,978.60
2022-10-19T12:04:12.663Z,978.66
2022-10-19T12:06:12.667Z,978.61
2022-10-19T12:07:12.636Z,978.62
2022-10-19T12:08:12.668Z,978.60
2022-10-19T12:09:12.695Z,978.62
2022-10-19T12:10:45.820Z,978.56
2022-10-19T12:11:12.604Z,978.54
2022-10-19T12:12:12.595Z,978.50
2022-10-19T12:13:12.588Z,978.51
2022-10-19T12:14:12.579Z,978.51
2022-10-19T12:15:12.574Z,978.47
2022-10-19T12:16:12.561Z,978.48
2022-10-19T12:18:12.548Z,978.42
2022-10-19T12:19:12.542Z,978.40
2022-10-19T12:20:14.899Z,978.31
2022-10-19T12:21:12.523Z,978.30
2022-10-19T12:22:12.532Z,978.30
2022-10-19T12:23:12.508Z,978.33
2022-10-19T12:24:12.499Z,978.35
2022-10-19T12:25:12.510Z,978.33
2022-10-19T12:26:12.569Z,978.40
2022-10-19T12:27:12.476Z,978.18
2022-10-19T12:28:12.482Z,978.16
2022-10-19T12:29:12.460Z,978.25
2022-10-19T12:30:12.451Z,978.13
2022-10-19T12:31:12.444Z,978.11
2022-10-19T12:32:12.433Z,978.25
2022-10-19T12:33:12.426Z,978.27
2022-10-19T12:34:12.450Z,978.07
2022-10-19T12:35:12.454Z,978.09
2022-10-19T12:36:12.401Z,977.99
2022-10-19T12:37:12.391Z,978.03
2022-10-19T12:38:12.400Z,977.92
2022-10-19T12:39:12.377Z,978.05
2022-10-19T12:40:12.472Z,978.10
2022-10-19T12:41:12.359Z,978.06
2022-10-19T12:42:12.349Z,978.04
2022-10-19T12:43:12.344Z,977.89
2022-10-19T12:44:12.359Z,977.92